createdAt,value
2022-11-16T00:01:57.146Z,32.17
2022-11-16T00:04:25.016Z,30.30
2022-11-16T00:06:52.894Z,28.87
2022-11-16T00:09:23.855Z,28.87
2022-11-16T00:11:55.291Z,28.10
2022-11-16T00:14:24.599Z,31.17
2022-11-16T00:16:52.739Z,26.93
2022-11-16T00:19:20.555Z,28.97
2022-11-16T00:21:48.393Z,32.33
2022-11-16T00:24:17.608Z,28.43
2022-11-16T00:26:46.119Z,30.33
2022-11-16T00:29:17.873Z,29.20
2022-11-16T00:31:46.568Z,30.27
2022-11-16T00:34:14.955Z,29.67
2022-11-16T00:36:42.829Z,30.03
2022-11-16T00:39:12.336Z,29.27
2022-11-16T00:41:40.110Z,28.53
2022-11-16T00:44:08.279Z,34.90
2022-11-16T00:46:37.417Z,35.40
2022-11-16T00:49:05.706Z,31.13
2022-11-16T00:51:33.593Z,30.93
2022-11-16T00:54:01.722Z,32.23
2022-11-16T00:56:29.489Z,31.07
2022-11-16T00:58:57.235Z,27.93
2022-11-16T01:01:25.073Z,33.40
2022-11-16T01:03:54.337Z,31.77
2022-11-16T01:06:23.433Z,30.13
2022-11-16T01:08:51.391Z,32.77
2022-11-16T01:11:37.040Z,34.53
2022-11-16T01:14:07.106Z,34.53
2022-11-16T01:16:35.227Z,31.40
2022-11-16T01:19:05.556Z,37.20
2022-11-16T01:21:33.410Z,40.77
2022-11-16T01:24:01.241Z,34.23
2022-11-16T01:26:28.988Z,35.20
2022-11-16T01:28:56.778Z,36.80
2022-11-16T01:31:24.483Z,37.73
2022-11-16T01:33:52.280Z,38.67
2022-11-16T01:36:21.402Z,35.80
2022-11-16T01:38:49.220Z,36.90
2022-11-16T01:41:19.389Z,37.97
2022-11-16T01:43:53.276Z,37.30
2022-11-16T01:46:21.400Z,42.60
2022-11-16T01:48:53.720Z,41.67
2022-11-16T01:51:23.577Z,43.80
2022-11-16T01:53:52.100Z,40.00
2022-11-16T01:56:19.877Z,42.67
2022-11-16T01:58:47.940Z,44.77
2022-11-16T02:01:15.738Z,43.93
2022-11-16T02:03:43.515Z,43.73
2022-11-16T02:06:31.568Z,40.93
2022-11-16T02:09:30.780Z,44.97
2022-11-16T02:12:14.964Z,44.63
2022-11-16T02:15:02.824Z,47.17
2022-11-16T02:17:37.507Z,44.83
2022-11-16T02:20:40.076Z,44.90
2022-11-16T02:23:51.949Z,47.67
2022-11-16T02:26:44.830Z,37.53
2022-11-16T02:29:21.882Z,47.37
2022-11-16T02:31:54.139Z,41.93
2022-11-16T02:34:23.935Z,40.47
2022-11-16T02:36:55.531Z,46.27
2022-11-16T02:39:28.162Z,40.43
2022-11-16T02:41:58.096Z,47.60
2022-11-16T02:44:31.646Z,38.07
2022-11-16T02:47:05.075Z,45.80
2022-11-16T02:49:35.884Z,43.13
2022-11-16T02:52:04.030Z,46.03
2022-11-16T02:54:31.745Z,38.63
2022-11-16T02:57:23.604Z,35.70
2022-11-16T02:59:57.672Z,48.37
2022-11-16T03:02:32.022Z,41.37
2022-11-16T03:05:03.664Z,41.67
2022-11-16T03:07:39.045Z,41.23
2022-11-16T03:10:08.036Z,40.53
2022-11-16T03:12:35.895Z,42.70
2022-11-16T03:15:08.419Z,43.83
2022-11-16T03:17:41.915Z,43.90
2022-11-16T03:20:13.844Z,38.83
2022-11-16T03:22:45.108Z,39.37
2022-11-16T03:25:15.091Z,41.70
2022-11-16T03:27:51.187Z,36.60
2022-11-16T03:30:23.800Z,49.23
2022-11-16T03:32:58.378Z,50.50
2022-11-16T03:35:29.070Z,46.10
2022-11-16T03:37:59.575Z,47.27
2022-11-16T03:40:31.481Z,40.93
2022-11-16T03:43:00.573Z,48.00
2022-11-16T03:45:30.519Z,49.30
2022-11-16T03:47:58.750Z,47.80
2022-11-16T03:50:26.908Z,49.17
2022-11-16T03:52:54.594Z,44.40
2022-11-16T03:55:22.266Z,51.73
2022-11-16T03:57:49.956Z,48.20
2022-11-16T04:00:17.642Z,50.43
2022-11-16T04:02:46.801Z,52.33
2022-11-16T04:05:31.884Z,51.13
2022-11-16T04:08:17.319Z,45.27
2022-11-16T04:11:02.717Z,54.20
2022-11-16T04:13:50.638Z,44.33
2022-11-16T04:16:36.158Z,46.97
2022-11-16T04:19:22.814Z,45.90
2022-11-16T04:22:12.795Z,48.83
2022-11-16T04:24:43.239Z,42.43
2022-11-16T04:27:32.187Z,49.37
2022-11-16T04:30:02.415Z,51.90
2022-11-16T04:32:48.169Z,51.20
2022-11-16T04:35:34.694Z,52.73
2022-11-16T04:38:02.500Z,46.87
2022-11-16T04:40:30.168Z,47.87
2022-11-16T04:42:59.745Z,45.73
2022-11-16T04:45:46.289Z,53.50
2022-11-16T04:48:15.836Z,44.67
2022-11-16T04:50:45.380Z,53.23
2022-11-16T04:53:13.564Z,51.77
2022-11-16T04:55:41.406Z,53.40
2022-11-16T04:58:09.226Z,49.93
2022-11-16T05:00:37.036Z,44.73
2022-11-16T05:03:05.915Z,55.57
2022-11-16T05:05:33.786Z,53.50
2022-11-16T05:08:02.898Z,58.80
2022-11-16T05:10:30.662Z,48.87
2022-11-16T05:12:58.943Z,57.97
2022-11-16T05:15:26.611Z,58.23
2022-11-16T05:17:55.816Z,44.33
2022-11-16T05:20:40.824Z,57.57
2022-11-16T05:23:30.659Z,58.87
2022-11-16T05:25:58.366Z,51.13
2022-11-16T05:28:26.124Z,54.10
2022-11-16T05:30:53.925Z,50.67
2022-11-16T05:33:21.759Z,53.80
2022-11-16T05:35:50.824Z,56.10
2022-11-16T05:38:20.465Z,52.90
2022-11-16T05:40:48.246Z,54.50
2022-11-16T05:43:15.994Z,49.63
2022-11-16T05:45:44.143Z,47.77
2022-11-16T05:48:12.165Z,53.13
2022-11-16T05:50:42.730Z,55.13
2022-11-16T05:53:11.024Z,50.90
2022-11-16T05:55:40.129Z,42.47
2022-11-16T05:58:07.834Z,48.23
2022-11-16T06:00:35.609Z,51.13
2022-11-16T06:03:03.391Z,54.03
2022-11-16T06:05:33.273Z,53.13
2022-11-16T06:08:04.122Z,46.90
2022-11-16T06:10:32.447Z,49.37
2022-11-16T06:13:01.601Z,47.27
2022-11-16T06:15:29.529Z,47.13
2022-11-16T06:17:57.482Z,52.23
2022-11-16T06:20:25.268Z,40.50
2022-11-16T06:22:53.109Z,52.67
2022-11-16T06:25:21.134Z,51.53
2022-11-16T06:27:49.024Z,55.07
2022-11-16T06:30:18.522Z,52.83
2022-11-16T06:32:46.331Z,45.60
2022-11-16T06:35:14.090Z,56.57
2022-11-16T06:37:41.878Z,59.83
2022-11-16T06:40:11.036Z,49.93
2022-11-16T06:42:38.758Z,54.40
2022-11-16T06:45:07.269Z,43.83
2022-11-16T06:47:36.316Z,61.43
2022-11-16T06:50:04.423Z,58.30
2022-11-16T06:52:32.275Z,49.50
2022-11-16T06:55:00.106Z,64.60
2022-11-16T06:57:27.807Z,50.60
2022-11-16T06:59:55.538Z,56.10
2022-11-16T07:02:23.701Z,54.13
2022-11-16T07:04:52.781Z,62.10
2022-11-16T07:07:20.599Z,61.30
2022-11-16T07:09:48.461Z,48.23
2022-11-16T07:12:16.277Z,55.17
2022-11-16T07:14:45.479Z,54.77
2022-11-16T07:17:13.433Z,54.13
2022-11-16T07:19:41.196Z,52.97
2022-11-16T07:22:10.380Z,61.43
2022-11-16T07:24:38.099Z,50.60
2022-11-16T07:27:05.901Z,54.63
2022-11-16T07:29:33.670Z,54.87
2022-11-16T07:32:01.463Z,48.73
2022-11-16T07:34:29.982Z,45.07
2022-11-16T07:36:57.916Z,56.37
2022-11-16T07:39:29.141Z,50.20
2022-11-16T07:41:59.450Z,48.73
2022-11-16T07:44:27.918Z,47.20
2022-11-16T07:46:56.348Z,47.67
2022-11-16T07:49:24.162Z,47.07
2022-11-16T07:51:52.001Z,52.03
2022-11-16T07:54:19.714Z,54.20
2022-11-16T07:56:49.555Z,46.27
2022-11-16T07:59:17.412Z,51.47
2022-11-16T08:01:47.545Z,48.80
2022-11-16T08:04:17.528Z,46.33
2022-11-16T08:06:46.859Z,51.60
2022-11-16T08:09:14.820Z,46.23
2022-11-16T08:11:42.690Z,45.53
2022-11-16T08:14:12.951Z,45.80
2022-11-16T08:16:40.952Z,45.40
2022-11-16T08:19:09.323Z,49.60
2022-11-16T08:21:37.404Z,43.83
2022-11-16T08:24:05.930Z,43.57
2022-11-16T08:26:33.979Z,43.87
2022-11-16T08:29:02.019Z,41.97
2022-11-16T08:31:31.173Z,43.43
2022-11-16T08:34:00.771Z,43.37
2022-11-16T08:36:28.653Z,42.97
2022-11-16T08:38:56.367Z,45.97
2022-11-16T08:41:24.045Z,41.57
2022-11-16T08:43:53.347Z,39.77
2022-11-16T08:46:21.700Z,42.37
2022-11-16T08:48:50.713Z,48.20
2022-11-16T08:51:20.364Z,49.20
2022-11-16T08:53:49.284Z,46.70
2022-11-16T08:56:36.866Z,46.97
2022-11-16T08:59:04.877Z,39.30
2022-11-16T09:01:33.535Z,48.60
2022-11-16T09:04:02.714Z,51.07
2022-11-16T09:06:30.524Z,50.40
2022-11-16T09:08:58.820Z,54.03
2022-11-16T09:11:27.045Z,49.73
2022-11-16T09:13:56.613Z,51.20
2022-11-16T09:16:26.684Z,46.83
2022-11-16T09:18:54.902Z,52.17
2022-11-16T09:21:25.743Z,53.13
2022-11-16T09:23:54.831Z,50.03
2022-11-16T09:26:23.356Z,53.87
2022-11-16T09:28:56.837Z,52.67
2022-11-16T09:31:24.789Z,52.27
2022-11-16T09:33:52.468Z,50.07
2022-11-16T09:36:20.792Z,43.43
2022-11-16T09:41:50.963Z,52.37
2022-11-16T09:44:35.469Z,51.57
2022-11-16T09:47:03.809Z,49.53
2022-11-16T09:49:34.658Z,59.23
2022-11-16T09:52:06.216Z,51.77
2022-11-16T09:54:39.031Z,56.40
2022-11-16T09:57:12.783Z,53.60
2022-11-16T09:59:45.365Z,49.70
2022-11-16T10:02:22.101Z,51.83
2022-11-16T10:04:58.285Z,54.97
2022-11-16T10:07:29.983Z,56.67
2022-11-16T10:09:59.167Z,57.50
2022-11-16T10:12:31.486Z,52.97
2022-11-16T10:15:20.571Z,59.73
2022-11-16T10:17:59.408Z,65.07
2022-11-16T10:20:45.937Z,59.63
2022-11-16T10:23:22.402Z,44.73
2022-11-16T10:25:55.413Z,65.87
2022-11-16T10:28:46.103Z,59.83
2022-11-16T10:31:23.349Z,62.67
2022-11-16T10:33:55.597Z,59.73
2022-11-16T10:36:27.714Z,60.17
2022-11-16T10:38:57.066Z,53.03
2022-11-16T10:41:32.600Z,59.57
2022-11-16T10:44:00.914Z,46.30
2022-11-16T10:46:34.642Z,67.63
2022-11-16T10:49:07.886Z,63.23
2022-11-16T10:51:35.557Z,61.93
2022-11-16T10:54:04.622Z,56.70
2022-11-16T10:56:39.582Z,61.17
2022-11-16T10:59:09.076Z,57.93
2022-11-16T11:01:39.529Z,63.07
2022-11-16T11:04:19.789Z,57.90
2022-11-16T11:06:49.411Z,53.10
2022-11-16T11:09:24.637Z,54.93
2022-11-16T11:12:19.703Z,49.47
2022-11-16T11:15:26.324Z,47.43
2022-11-16T11:18:13.601Z,62.33
2022-11-16T11:20:45.312Z,58.47
2022-11-16T11:23:17.115Z,56.77
2022-11-16T11:25:52.521Z,62.70
2022-11-16T11:28:26.353Z,56.87
2022-11-16T11:31:01.341Z,57.77
2022-11-16T11:33:33.997Z,53.03
2022-11-16T11:36:06.729Z,53.90
2022-11-16T11:38:35.900Z,52.77
2022-11-16T11:41:06.015Z,58.10
2022-11-16T11:43:35.630Z,55.57
2022-11-16T11:46:10.676Z,54.73
2022-11-16T11:48:47.944Z,56.53
2022-11-16T11:51:23.119Z,48.80
2022-11-16T11:53:56.344Z,43.30
2022-11-16T11:56:25.351Z,46.60
2022-11-16T11:58:55.907Z,45.63
2022-11-16T12:01:42.876Z,51.83
2022-11-16T12:04:55.861Z,41.03
2022-11-16T12:07:40.422Z,52.63
2022-11-16T12:10:19.762Z,49.57
2022-11-16T12:13:01.773Z,49.87
2022-11-16T12:15:43.260Z,49.93
2022-11-16T12:18:24.388Z,50.07
2022-11-16T12:21:02.122Z,54.40
2022-11-16T12:23:45.935Z,50.90
2022-11-16T12:26:26.674Z,61.63
2022-11-16T12:29:06.483Z,60.63
2022-11-16T12:32:11.675Z,55.70
2022-11-16T12:34:57.234Z,62.63
2022-11-16T12:37:32.036Z,60.50
2022-11-16T12:40:18.237Z,56.03
2022-11-16T12:42:53.374Z,63.23
2022-11-16T12:45:38.599Z,59.77
2022-11-16T12:48:36.877Z,51.87
2022-11-16T12:51:12.440Z,58.33
2022-11-16T12:53:57.052Z,55.00
2022-11-16T12:56:35.213Z,56.63
2022-11-16T12:59:31.982Z,56.07
2022-11-16T13:02:12.261Z,52.77
2022-11-16T13:04:45.676Z,52.53
2022-11-16T13:07:18.171Z,54.03
2022-11-16T13:09:50.272Z,57.50
2022-11-16T13:12:23.299Z,53.13
2022-11-16T13:14:54.198Z,54.47
2022-11-16T13:17:25.284Z,58.63
2022-11-16T13:20:14.934Z,56.67
2022-11-16T13:22:50.874Z,58.23
2022-11-16T13:25:23.669Z,63.63
2022-11-16T13:27:58.347Z,49.67
2022-11-16T13:30:30.247Z,59.87
2022-11-16T13:33:14.724Z,57.90
2022-11-16T13:35:44.124Z,62.70
2022-11-16T13:38:13.563Z,61.90
2022-11-16T13:40:42.336Z,67.30
2022-11-16T13:43:20.221Z,67.10
2022-11-16T13:45:57.043Z,68.63
2022-11-16T13:48:30.629Z,78.23
2022-11-16T13:51:02.961Z,60.00
2022-11-16T13:56:28.305Z,76.63
2022-11-16T13:58:58.291Z,81.57
2022-11-16T14:01:26.567Z,81.33
2022-11-16T14:04:34.011Z,77.00
2022-11-16T14:07:03.090Z,61.20
2022-11-16T14:09:45.206Z,73.03
2022-11-16T14:12:58.628Z,78.90
2022-11-16T14:15:29.543Z,65.90
2022-11-16T14:18:03.917Z,75.00
2022-11-16T14:20:43.805Z,64.80
2022-11-16T14:23:45.561Z,67.30
2022-11-16T14:26:19.960Z,53.43
2022-11-16T14:29:11.818Z,61.47
2022-11-16T14:31:53.470Z,44.27
2022-11-16T14:34:25.511Z,61.80
2022-11-16T14:36:54.232Z,66.10
2022-11-16T14:39:32.665Z,50.80
2022-11-16T14:42:03.832Z,60.80
2022-11-16T14:44:35.675Z,55.17
2022-11-16T14:47:04.907Z,53.07
2022-11-16T14:49:35.811Z,53.13
2022-11-16T14:52:06.114Z,50.80
2022-11-16T14:54:40.066Z,61.27
2022-11-16T14:57:14.082Z,54.57
2022-11-16T14:59:42.097Z,56.67
2022-11-16T15:02:20.162Z,57.07
2022-11-16T15:04:49.785Z,50.07
2022-11-16T15:07:18.683Z,57.93
2022-11-16T15:09:50.575Z,53.80
2022-11-16T15:12:37.346Z,53.30
2022-11-16T15:15:09.087Z,49.70
2022-11-16T15:17:37.731Z,55.83
2022-11-16T15:20:17.193Z,40.30
2022-11-16T15:22:47.218Z,51.57
2022-11-16T15:25:28.700Z,55.30
2022-11-16T15:27:57.957Z,50.77
2022-11-16T15:30:28.475Z,50.13
2022-11-16T15:32:56.947Z,62.40
2022-11-16T15:35:26.709Z,56.57
2022-11-16T15:38:05.280Z,61.20
2022-11-16T15:40:35.524Z,70.33
2022-11-16T15:43:05.982Z,69.57
2022-11-16T15:45:35.140Z,57.93
2022-11-16T15:48:04.936Z,63.40
2022-11-16T15:50:32.852Z,57.77
2022-11-16T15:53:00.726Z,65.73
2022-11-16T15:55:34.165Z,63.73
2022-11-16T15:58:13.250Z,66.03
2022-11-16T16:00:41.988Z,68.63
2022-11-16T16:03:20.095Z,62.97
2022-11-16T16:05:48.803Z,53.60
2022-11-16T16:08:31.590Z,60.63
2022-11-16T16:11:05.247Z,61.37
2022-11-16T16:13:36.743Z,65.67
2022-11-16T16:16:27.337Z,63.20
2022-11-16T16:18:58.145Z,57.40
2022-11-16T16:21:28.939Z,62.10
2022-11-16T16:23:58.293Z,45.47
2022-11-16T16:26:26.044Z,44.90
2022-11-16T16:28:55.144Z,50.90
2022-11-16T16:31:22.910Z,42.93
2022-11-16T16:33:50.697Z,48.30
2022-11-16T16:36:18.433Z,55.57
2022-11-16T16:38:46.162Z,43.27
2022-11-16T16:41:24.016Z,44.90
2022-11-16T16:43:52.120Z,44.67
2022-11-16T16:46:21.782Z,42.97
2022-11-16T16:48:49.484Z,39.13
2022-11-16T16:51:17.255Z,41.90
2022-11-16T16:53:45.085Z,37.90
2022-11-16T16:56:16.117Z,43.07
2022-11-16T16:58:44.177Z,38.73
2022-11-16T17:01:12.238Z,41.17
2022-11-16T17:03:41.466Z,37.27
2022-11-16T17:06:09.321Z,39.13
2022-11-16T17:08:38.164Z,40.17
2022-11-16T17:11:06.812Z,39.00
2022-11-16T17:13:34.934Z,32.43
2022-11-16T17:16:05.705Z,31.00
2022-11-16T17:18:33.359Z,34.43
2022-11-16T17:21:06.198Z,32.93
2022-11-16T17:23:34.369Z,35.87
2022-11-16T17:26:05.768Z,38.30
2022-11-16T17:28:33.575Z,29.63
2022-11-16T17:31:05.080Z,36.90
2022-11-16T17:33:34.951Z,31.40
2022-11-16T17:36:03.934Z,29.90
2022-11-16T17:38:33.305Z,26.17
2022-11-16T17:41:05.232Z,29.07
2022-11-16T17:43:33.703Z,27.37
2022-11-16T17:46:06.210Z,28.43
2022-11-16T17:48:34.645Z,28.93
2022-11-16T17:51:02.363Z,25.30
2022-11-16T17:53:32.825Z,26.13
2022-11-16T17:56:02.549Z,27.07
2022-11-16T17:58:31.400Z,23.83
2022-11-16T18:00:59.553Z,26.50
2022-11-16T18:03:28.292Z,22.43
2022-11-16T18:06:02.779Z,27.67
2022-11-16T18:08:30.658Z,26.43
2022-11-16T18:10:58.539Z,23.43
2022-11-16T18:13:27.656Z,26.43
2022-11-16T18:15:55.350Z,25.00
2022-11-16T18:18:23.033Z,18.10
2022-11-16T18:20:50.938Z,20.77
2022-11-16T18:23:18.618Z,20.00
2022-11-16T18:25:46.291Z,19.83
2022-11-16T18:28:13.966Z,20.97
2022-11-16T18:30:42.935Z,20.47
2022-11-16T18:33:11.086Z,23.20
2022-11-16T18:35:38.828Z,20.47
2022-11-16T18:38:07.217Z,17.63
2022-11-16T18:40:35.065Z,19.73
2022-11-16T18:43:02.881Z,16.20
2022-11-16T18:45:30.613Z,19.77
2022-11-16T18:47:59.778Z,17.77
2022-11-16T18:50:27.457Z,15.30
2022-11-16T18:52:55.132Z,13.47
2022-11-16T18:55:22.779Z,16.80
2022-11-16T18:57:50.641Z,18.07
2022-11-16T19:00:20.304Z,20.00
2022-11-16T19:02:48.062Z,19.63
2022-11-16T19:05:17.526Z,14.33
2022-11-16T19:07:45.351Z,16.93
2022-11-16T19:10:13.173Z,16.07
2022-11-16T19:12:41.016Z,15.70
2022-11-16T19:15:09.199Z,16.40
2022-11-16T19:17:48.208Z,11.83
2022-11-16T19:20:26.220Z,13.70
2022-11-16T19:22:54.096Z,15.17
2022-11-16T19:25:21.945Z,15.27
2022-11-16T19:27:49.695Z,17.30
2022-11-16T19:30:18.103Z,18.50
2022-11-16T19:32:46.121Z,14.07
2022-11-16T19:35:16.091Z,16.83
2022-11-16T19:37:45.239Z,15.03
2022-11-16T19:40:13.896Z,17.93
2022-11-16T19:42:42.953Z,15.20
2022-11-16T19:45:11.924Z,15.03
2022-11-16T19:47:39.735Z,19.80
2022-11-16T19:50:10.038Z,17.90
2022-11-16T19:52:37.831Z,14.40
2022-11-16T19:55:07.555Z,18.17
2022-11-16T19:57:35.340Z,16.00
2022-11-16T20:00:03.072Z,14.60
2022-11-16T20:02:30.852Z,20.03
2022-11-16T20:04:58.514Z,15.13
2022-11-16T20:07:26.270Z,16.83
2022-11-16T20:09:54.635Z,17.50
2022-11-16T20:12:23.882Z,17.93
2022-11-16T20:14:51.764Z,19.23
2022-11-16T20:17:19.497Z,18.33
2022-11-16T20:19:47.160Z,18.27
2022-11-16T20:22:15.597Z,15.13
2022-11-16T20:24:43.381Z,18.93
2022-11-16T20:27:11.120Z,19.67
2022-11-16T20:29:40.204Z,20.20
2022-11-16T20:32:07.959Z,18.50
2022-11-16T20:34:35.745Z,14.77
2022-11-16T20:37:03.575Z,16.20
2022-11-16T20:39:31.336Z,19.43
2022-11-16T20:41:59.069Z,16.70
2022-11-16T20:44:26.890Z,15.03
2022-11-16T20:46:56.080Z,16.80
2022-11-16T20:49:23.779Z,17.37
2022-11-16T20:51:51.840Z,19.80
2022-11-16T20:54:19.530Z,20.47
2022-11-16T20:56:48.161Z,17.00
2022-11-16T20:59:16.189Z,17.47
2022-11-16T21:01:47.769Z,16.50
2022-11-16T21:04:17.265Z,17.00
2022-11-16T21:06:45.071Z,18.97
2022-11-16T21:09:13.084Z,17.63
2022-11-16T21:11:54.711Z,19.10
2022-11-16T21:14:23.507Z,14.27
2022-11-16T21:16:51.199Z,14.80
2022-11-16T21:19:20.482Z,15.90
2022-11-16T21:21:48.271Z,19.53
2022-11-16T21:24:15.997Z,18.47
2022-11-16T21:26:43.831Z,17.20
2022-11-16T21:29:11.576Z,16.10
2022-11-16T21:31:39.358Z,13.47
2022-11-16T21:34:07.531Z,13.63
2022-11-16T21:36:37.009Z,14.20
2022-11-16T21:39:04.955Z,15.63
2022-11-16T21:41:32.834Z,15.30
2022-11-16T21:44:00.564Z,9.27
2022-11-16T21:46:28.393Z,14.50
2022-11-16T21:48:57.194Z,13.43
2022-11-16T21:51:26.888Z,10.97
2022-11-16T21:53:56.966Z,14.03
2022-11-16T21:56:26.718Z,15.00
2022-11-16T21:58:55.148Z,13.93
2022-11-16T22:01:24.175Z,19.37
2022-11-16T22:04:06.044Z,11.03
2022-11-16T22:06:51.085Z,12.27
2022-11-16T22:09:20.170Z,15.90
2022-11-16T22:11:48.053Z,12.57
2022-11-16T22:14:15.810Z,12.10
2022-11-16T22:16:43.547Z,12.30
2022-11-16T22:19:11.280Z,11.73
2022-11-16T22:21:38.992Z,10.43
2022-11-16T22:24:07.551Z,9.83
2022-11-16T22:26:37.994Z,8.57
2022-11-16T22:29:05.665Z,10.03
2022-11-16T22:31:33.429Z,10.37
2022-11-16T22:34:01.143Z,10.10
2022-11-16T22:36:28.881Z,9.53
2022-11-16T22:38:57.102Z,9.13
2022-11-16T22:41:24.912Z,8.63
2022-11-16T22:43:54.194Z,10.33
2022-11-16T22:46:21.944Z,10.80
2022-11-16T22:48:49.649Z,9.47
2022-11-16T22:51:20.158Z,9.67
2022-11-16T22:53:47.925Z,9.63
2022-11-16T22:56:15.652Z,6.93
2022-11-16T22:58:43.449Z,9.97
2022-11-16T23:01:12.557Z,9.03
2022-11-16T23:03:40.987Z,8.13
2022-11-16T23:06:09.432Z,10.13
2022-11-16T23:08:37.809Z,9.27
2022-11-16T23:11:24.898Z,8.33
2022-11-16T23:14:11.401Z,5.97
2022-11-16T23:16:41.346Z,11.27
2022-11-16T23:19:24.406Z,8.77
2022-11-16T23:22:09.438Z,8.67
2022-11-16T23:24:54.823Z,7.00
2022-11-16T23:27:31.691Z,7.23
2022-11-16T23:30:01.369Z,10.17
2022-11-16T23:32:31.512Z,7.97
2022-11-16T23:34:59.213Z,8.17
2022-11-16T23:37:27.121Z,6.67
2022-11-16T23:39:54.983Z,6.90
2022-11-16T23:42:40.246Z,9.70
2022-11-16T23:45:08.472Z,8.80
2022-11-16T23:47:37.537Z,8.47
2022-11-16T23:50:06.140Z,7.07
2022-11-16T23:52:33.819Z,6.87
2022-11-16T23:55:01.527Z,9.17
2022-11-16T23:57:29.215Z,7.83
2022-11-16T23:59:57.714Z,8.93
